createdAt,value
2023-03-06T00:02:04.528Z,1.51
2023-03-06T00:07:24.089Z,1.5
2023-03-06T00:12:43.124Z,1.51
2023-03-06T00:18:02.091Z,1.53
2023-03-06T00:23:20.951Z,1.57
2023-03-06T00:28:40.340Z,1.57
2023-03-06T00:33:59.885Z,1.56
2023-03-06T00:39:19.274Z,1.58
2023-03-06T00:44:39.075Z,1.64
2023-03-06T00:49:58.096Z,1.7
2023-03-06T00:55:17.415Z,1.71
2023-03-06T01:00:37.254Z,1.71
2023-03-06T01:05:56.192Z,1.66
2023-03-06T01:11:16.022Z,1.68
2023-03-06T01:16:34.760Z,1.66
2023-03-06T01:23:08.960Z,1.64
2023-03-06T01:27:14.055Z,1.66
2023-03-06T01:32:31.804Z,1.61
2023-03-06T01:37:50.799Z,1.58
2023-03-06T01:43:10.038Z,1.56
2023-03-06T01:48:29.814Z,1.53
2023-03-06T01:53:49.417Z,1.46
2023-03-06T01:59:08.396Z,1.42
2023-03-06T02:04:27.779Z,1.4
2023-03-06T02:09:47.496Z,1.39
2023-03-06T02:15:06.629Z,1.39
2023-03-06T02:20:25.509Z,1.4
2023-03-06T02:25:44.529Z,1.39
2023-03-06T02:31:04.406Z,1.43
2023-03-06T02:36:23.373Z,1.44
2023-03-06T02:41:42.671Z,1.43
2023-03-06T02:47:01.951Z,1.43
2023-03-06T02:52:21.706Z,1.44
2023-03-06T02:57:40.788Z,1.44
2023-03-06T03:04:15.031Z,1.39
2023-03-06T03:08:20.728Z,1.37
2023-03-06T03:13:39.329Z,1.35
2023-03-06T03:18:58.496Z,1.36
2023-03-06T03:24:17.914Z,1.39
2023-03-06T03:29:37.312Z,1.36
2023-03-06T03:34:56.569Z,1.33
2023-03-06T03:40:15.643Z,1.39
2023-03-06T03:45:35.302Z,1.39
2023-03-06T03:50:54.153Z,1.39
2023-03-06T03:56:13.685Z,1.42
2023-03-06T04:01:33.292Z,1.43
2023-03-06T04:06:52.540Z,1.4
2023-03-06T04:12:12.049Z,1.37
2023-03-06T04:17:30.843Z,1.37
2023-03-06T04:22:50.123Z,1.35
2023-03-06T04:28:09.310Z,1.35
2023-03-06T04:33:29.120Z,1.32
2023-03-06T04:38:48.252Z,1.3
2023-03-06T04:44:07.141Z,1.29
2023-03-06T04:49:26.398Z,1.29
2023-03-06T04:54:45.889Z,1.25
2023-03-06T05:00:05.105Z,1.26
2023-03-06T05:05:24.403Z,1.26
2023-03-06T05:10:42.670Z,1.3
2023-03-06T05:16:01.636Z,1.3
2023-03-06T05:21:21.202Z,1.26
2023-03-06T05:26:40.063Z,1.22
2023-03-06T05:31:59.211Z,1.2
2023-03-06T05:37:18.606Z,1.2
2023-03-06T05:42:38.284Z,1.2
2023-03-06T05:47:57.952Z,1.16
2023-03-06T05:53:17.334Z,1.13
2023-03-06T05:58:36.969Z,1.12
2023-03-06T06:03:56.768Z,1.13
2023-03-06T06:09:15.779Z,1.16
2023-03-06T06:14:34.699Z,1.16
2023-03-06T06:19:53.577Z,1.22
2023-03-06T06:25:13.333Z,1.23
2023-03-06T06:30:32.194Z,1.26
2023-03-06T06:35:51.176Z,1.33
2023-03-06T06:41:35.895Z,1.37
2023-03-06T06:46:59.207Z,1.39
2023-03-06T06:51:49.326Z,1.43
2023-03-06T06:57:08.444Z,1.46
2023-03-06T07:02:28.166Z,1.5
2023-03-06T07:07:47.659Z,1.51
2023-03-06T07:13:07.307Z,1.58
2023-03-06T07:18:25.832Z,1.67
2023-03-06T07:23:45.027Z,1.77
2023-03-06T07:29:03.869Z,1.85
2023-03-06T07:34:23.863Z,1.87
2023-03-06T07:39:42.830Z,1.88
2023-03-06T07:45:01.821Z,1.89
2023-03-06T07:50:20.640Z,1.82
2023-03-06T07:55:39.824Z,1.81
2023-03-06T08:00:58.835Z,1.84
2023-03-06T08:06:18.473Z,1.88
2023-03-06T08:11:37.896Z,1.87
2023-03-06T08:16:57.368Z,1.81
2023-03-06T08:22:16.740Z,1.82
2023-03-06T08:27:36.055Z,1.79
2023-03-06T08:32:55.670Z,1.81
2023-03-06T08:38:14.079Z,1.89
2023-03-06T08:43:32.789Z,1.93
2023-03-06T08:48:52.475Z,1.97
2023-03-06T08:54:11.752Z,2.08
2023-03-06T08:59:31.327Z,2.14
2023-03-06T09:04:50.635Z,2.21
2023-03-06T09:10:11.056Z,2.42
2023-03-06T09:15:30.720Z,2.67
2023-03-06T09:20:49.933Z,2.73
2023-03-06T09:26:08.376Z,2.68
2023-03-06T09:31:27.921Z,2.56
2023-03-06T09:36:56.291Z,2.54
2023-03-06T09:42:05.892Z,2.52
2023-03-06T09:47:24.709Z,2.61
2023-03-06T09:52:44.005Z,2.72
2023-03-06T09:58:04.556Z,2.76
2023-03-06T10:03:22.893Z,2.91
2023-03-06T10:08:42.125Z,3.14
2023-03-06T10:14:01.280Z,3.34
2023-03-06T10:20:35.497Z,3.79
2023-03-06T10:24:40.616Z,3.76
2023-03-06T10:30:03.006Z,3.79
2023-03-06T10:35:18.690Z,3.72
2023-03-06T10:40:37.938Z,3.68
2023-03-06T10:45:57.384Z,3.79
2023-03-06T10:51:18.422Z,3.87
2023-03-06T10:56:35.809Z,3.85
2023-03-06T11:01:55.055Z,3.89
2023-03-06T11:07:14.458Z,3.83
2023-03-06T11:12:33.554Z,3.91
2023-03-06T11:17:52.754Z,3.89
2023-03-06T11:23:12.337Z,3.75
2023-03-06T11:28:31.094Z,3.68
2023-03-06T11:33:50.494Z,3.79
2023-03-06T11:39:09.620Z,3.93
2023-03-06T11:44:28.552Z,3.93
2023-03-06T11:49:46.949Z,4.04
2023-03-06T11:55:05.994Z,4.19
2023-03-06T12:00:25.839Z,4.16
2023-03-06T12:05:44.656Z,4.06
2023-03-06T12:11:03.948Z,4.16
2023-03-06T12:16:23.248Z,4.23
2023-03-06T12:21:42.499Z,4.3
2023-03-06T12:27:01.497Z,4.14
2023-03-06T12:32:21.195Z,4.1
2023-03-06T12:38:55.295Z,4.01
2023-03-06T12:43:00.137Z,4.17
2023-03-06T12:48:19.362Z,4.48
2023-03-06T12:53:39.089Z,4.67
2023-03-06T12:58:58.817Z,4.71
2023-03-06T13:04:17.640Z,4.83
2023-03-06T13:09:36.643Z,5.09
2023-03-06T13:14:55.980Z,5.01
2023-03-06T13:20:15.233Z,4.85
2023-03-06T13:25:34.484Z,4.96
2023-03-06T13:30:54.273Z,4.73
2023-03-06T13:36:13.340Z,4.37
2023-03-06T13:41:32.808Z,4.14
2023-03-06T13:46:51.825Z,3.93
2023-03-06T13:52:10.897Z,3.72
2023-03-06T13:57:30.215Z,3.66
2023-03-06T14:02:49.701Z,3.62
2023-03-06T14:08:09.031Z,3.58
2023-03-06T14:13:35.011Z,3.72
2023-03-06T14:18:48.489Z,3.77
2023-03-06T14:24:07.304Z,3.7
2023-03-06T14:29:26.758Z,3.76
2023-03-06T14:34:45.994Z,3.75
2023-03-06T14:40:05.190Z,3.68
2023-03-06T14:45:23.334Z,3.72
2023-03-06T14:50:42.854Z,3.69
2023-03-06T14:56:03.548Z,3.72
2023-03-06T15:01:21.220Z,3.83
2023-03-06T15:06:40.751Z,3.86
2023-03-06T15:12:01.173Z,3.79
2023-03-06T15:17:20.181Z,3.73
2023-03-06T15:22:39.961Z,3.76
2023-03-06T15:27:59.665Z,3.72
2023-03-06T15:33:18.638Z,3.73
2023-03-06T15:38:38.809Z,3.72
2023-03-06T15:43:57.268Z,3.68
2023-03-06T15:49:16.924Z,3.6
2023-03-06T15:54:36.335Z,3.54
2023-03-06T15:59:55.178Z,3.49
2023-03-06T16:05:13.972Z,3.42
2023-03-06T16:10:33.168Z,3.38
2023-03-06T16:15:52.831Z,3.32
2023-03-06T16:16:17.857Z,3.48
2023-03-06T16:21:37.968Z,3.25
2023-03-06T16:26:57.324Z,3.15
2023-03-06T16:32:16.471Z,3.04
2023-03-06T16:37:36.079Z,2.97
2023-03-06T16:42:55.396Z,2.9
2023-03-06T16:48:14.669Z,2.86
2023-03-06T16:53:33.900Z,2.81
2023-03-06T16:58:52.906Z,2.7
2023-03-06T17:04:12.432Z,2.63
2023-03-06T17:09:32.159Z,2.56
2023-03-06T17:14:51.934Z,2.56
2023-03-06T17:20:10.851Z,2.5
2023-03-06T17:25:30.436Z,2.47
2023-03-06T17:30:49.450Z,2.49
2023-03-06T17:36:08.911Z,2.42
2023-03-06T17:41:28.004Z,2.43
2023-03-06T17:46:47.649Z,2.45
2023-03-06T17:52:06.630Z,2.45
2023-03-06T17:57:26.157Z,2.46
2023-03-06T18:02:45.274Z,2.47
2023-03-06T18:08:04.089Z,2.43
2023-03-06T18:13:23.126Z,2.47
2023-03-06T18:18:42.085Z,2.46
2023-03-06T18:24:01.776Z,2.45
2023-03-06T18:29:20.922Z,2.39
2023-03-06T18:34:40.344Z,2.39
2023-03-06T18:39:59.890Z,2.4
2023-03-06T18:45:19.244Z,2.39
2023-03-06T18:50:39.160Z,2.43
2023-03-06T18:55:58.711Z,2.43
2023-03-06T19:01:17.586Z,2.47
2023-03-06T19:06:37.005Z,2.53
2023-03-06T19:11:55.992Z,2.57
2023-03-06T19:17:15.617Z,2.54
2023-03-06T19:22:35.109Z,2.57
2023-03-06T19:27:54.314Z,2.53
2023-03-06T19:33:13.878Z,2.53
2023-03-06T19:38:33.453Z,2.56
2023-03-06T19:43:52.622Z,2.49
2023-03-06T19:49:11.892Z,2.49
2023-03-06T19:54:32.518Z,2.45
2023-03-06T19:59:51.233Z,2.4
2023-03-06T20:05:10.063Z,2.42
2023-03-06T20:10:28.916Z,2.43
2023-03-06T20:15:47.835Z,2.43
2023-03-06T20:21:06.684Z,2.43
2023-03-06T20:26:26.441Z,2.46
2023-03-06T20:31:45.873Z,2.45
2023-03-06T20:37:04.839Z,2.45
2023-03-06T20:42:23.992Z,2.43
2023-03-06T20:47:43.743Z,2.43
2023-03-06T20:53:02.977Z,2.42
2023-03-06T20:58:22.409Z,2.4
2023-03-06T21:03:41.553Z,2.39
2023-03-06T21:09:01.177Z,2.36
2023-03-06T21:14:20.646Z,2.33
2023-03-06T21:19:39.745Z,2.34
2023-03-06T21:24:58.893Z,2.3
2023-03-06T21:30:17.992Z,2.33
2023-03-06T21:35:37.708Z,2.29
2023-03-06T21:40:57.260Z,2.3
2023-03-06T21:46:16.619Z,2.33
2023-03-06T21:51:36.024Z,2.36
2023-03-06T21:56:55.656Z,2.35
2023-03-06T22:02:14.424Z,2.39
2023-03-06T22:07:33.993Z,2.4
2023-03-06T22:12:53.195Z,2.35
2023-03-06T22:18:12.667Z,2.32
2023-03-06T22:23:32.320Z,2.35
2023-03-06T22:28:51.354Z,2.34
2023-03-06T22:34:10.173Z,2.39
2023-03-06T22:39:29.856Z,2.39
2023-03-06T22:44:48.965Z,2.43
2023-03-06T22:50:08.523Z,2.4
2023-03-06T22:55:28.131Z,2.42
2023-03-06T23:00:47.854Z,2.46
2023-03-06T23:06:07.362Z,2.47
2023-03-06T23:11:26.308Z,2.53
2023-03-06T23:16:45.823Z,2.56
2023-03-06T23:22:04.857Z,2.59
2023-03-06T23:27:24.024Z,2.59
2023-03-06T23:32:45.507Z,2.59
2023-03-06T23:38:02.359Z,2.59
2023-03-06T23:43:22.009Z,2.57
2023-03-06T23:48:40.915Z,2.54
2023-03-06T23:54:00.045Z,2.53
2023-03-06T23:59:18.895Z,2.54
